createdAt,value
2022-10-19T00:00:18.508Z,100554.25
2022-10-19T00:02:46.684Z,100547.72
2022-10-19T00:05:15.064Z,100541.34
2022-10-19T00:07:43.363Z,100540.19
2022-10-19T00:10:12.318Z,100542.00
2022-10-19T00:12:51.760Z,100548.66
2022-10-19T00:15:20.038Z,100541.44
2022-10-19T00:17:48.173Z,100549.53
2022-10-19T00:20:16.342Z,100549.53
2022-10-19T00:22:44.603Z,100561.47
2022-10-19T00:25:12.745Z,100555.97
2022-10-19T00:27:42.335Z,100552.13
2022-10-19T00:30:10.824Z,100546.34
2022-10-19T00:32:38.913Z,100548.94
2022-10-19T00:35:08.152Z,100544.72
2022-10-19T00:37:36.409Z,100551.94
2022-10-19T00:40:05.890Z,100557.69
2022-10-19T00:42:34.438Z,100559.44
2022-10-19T00:45:08.701Z,100557.69
2022-10-19T00:47:36.884Z,100556.84
2022-10-19T00:50:05.495Z,100567.41
2022-10-19T00:52:33.815Z,100572.16
2022-10-19T00:55:02.420Z,100565.09
2022-10-19T00:57:32.976Z,100568.56
2022-10-19T01:00:06.924Z,100563.69
2022-10-19T01:02:35.744Z,100562.91
2022-10-19T01:05:05.395Z,100559.63
2022-10-19T01:07:34.359Z,100554.44
2022-10-19T01:10:03.700Z,100558.06
2022-10-19T01:12:48.147Z,100560.00
2022-10-19T01:15:27.684Z,100559.63
2022-10-19T01:18:05.481Z,100556.16
2022-10-19T01:21:23.430Z,100559.72
2022-10-19T01:24:23.095Z,100553.56
2022-10-19T01:27:45.241Z,100546.25
2022-10-19T01:30:18.591Z,100555.47
2022-10-19T01:33:03.942Z,100569.31
2022-10-19T01:35:40.437Z,100568.19
2022-10-19T01:38:23.166Z,100570.78
2022-10-19T01:40:58.827Z,100561.13
2022-10-19T01:43:42.530Z,100566.72
2022-10-19T01:46:17.745Z,100566.91
2022-10-19T01:48:53.209Z,100573.59
2022-10-19T01:51:34.297Z,100570.66
2022-10-19T01:54:10.697Z,100579.00
2022-10-19T01:56:42.225Z,100568.94
2022-10-19T01:59:12.796Z,100571.00
2022-10-19T02:02:03.074Z,100562.94
2022-10-19T02:04:32.767Z,100560.41
2022-10-19T02:07:03.227Z,100560.09
2022-10-19T02:09:31.746Z,100553.09
2022-10-19T02:12:07.447Z,100543.03
2022-10-19T02:14:41.250Z,100546.88
2022-10-19T02:17:15.132Z,100548.53
2022-10-19T02:19:43.912Z,100543.41
2022-10-19T02:22:13.747Z,100541.09
2022-10-19T02:24:41.929Z,100546.09
2022-10-19T02:27:10.679Z,100546.47
2022-10-19T02:29:42.315Z,100549.94
2022-10-19T02:32:12.501Z,100559.06
2022-10-19T02:34:44.349Z,100553.75
2022-10-19T02:37:12.810Z,100560.88
2022-10-19T02:39:41.178Z,100558.28
2022-10-19T02:42:13.399Z,100553.94
2022-10-19T02:44:44.510Z,100549.59
2022-10-19T02:47:17.061Z,100548.94
2022-10-19T02:49:46.770Z,100552.00
2022-10-19T02:52:15.517Z,100555.53
2022-10-19T02:54:46.073Z,100554.75
2022-10-19T02:57:29.112Z,100554.75
2022-10-19T02:59:57.213Z,100551.22
2022-10-19T03:02:26.955Z,100551.78
2022-10-19T03:04:55.079Z,100545.47
2022-10-19T03:07:23.604Z,100543.13
2022-10-19T03:09:51.975Z,100540.06
2022-10-19T03:12:20.109Z,100542.41
2022-10-19T03:14:48.366Z,100538.31
2022-10-19T03:17:16.458Z,100543.91
2022-10-19T03:19:46.054Z,100545.06
2022-10-19T03:22:14.970Z,100549.19
2022-10-19T03:24:43.415Z,100549.28
2022-10-19T03:27:11.490Z,100550.91
2022-10-19T03:29:39.688Z,100549.09
2022-10-19T03:32:07.933Z,100555.72
2022-10-19T03:34:36.112Z,100549.88
2022-10-19T03:37:05.685Z,100554.31
2022-10-19T03:39:33.777Z,100557.44
2022-10-19T03:42:01.909Z,100555.72
2022-10-19T03:44:29.962Z,100568.78
2022-10-19T03:47:00.275Z,100565.97
2022-10-19T03:49:28.373Z,100566.91
2022-10-19T03:51:56.573Z,100574.66
2022-10-19T03:54:27.416Z,100570.38
2022-10-19T03:57:02.018Z,100567.53
2022-10-19T03:59:31.495Z,100574.66
2022-10-19T04:01:59.837Z,100574.72
2022-10-19T04:04:28.218Z,100575.78
2022-10-19T04:06:56.354Z,100578.56
2022-10-19T04:09:25.943Z,100576.38
2022-10-19T04:11:54.123Z,100570.38
2022-10-19T04:14:32.164Z,100571.53
2022-10-19T04:17:02.034Z,100568.94
2022-10-19T04:19:32.738Z,100573.44
2022-10-19T04:22:01.021Z,100575.56
2022-10-19T04:24:30.497Z,100564.00
2022-10-19T04:26:58.711Z,100570.44
2022-10-19T04:29:29.949Z,100568.00
2022-10-19T04:32:00.240Z,100557.13
2022-10-19T04:34:28.479Z,100553.59
2022-10-19T04:36:59.537Z,100562.47
2022-10-19T04:39:28.007Z,100558.00
2022-10-19T04:41:57.442Z,100560.53
2022-10-19T04:44:25.617Z,100555.84
2022-10-19T04:46:53.748Z,100567.47
2022-10-19T04:49:21.835Z,100565.38
2022-10-19T04:51:49.899Z,100573.38
2022-10-19T04:54:18.039Z,100563.44
2022-10-19T04:56:46.615Z,100559.63
2022-10-19T04:59:16.197Z,100560.69
2022-10-19T05:01:46.426Z,100563.66
2022-10-19T05:04:15.713Z,100565.09
2022-10-19T05:06:43.911Z,100554.59
2022-10-19T05:09:12.204Z,100551.06
2022-10-19T05:11:40.498Z,100552.69
2022-10-19T05:14:08.759Z,100546.47
2022-10-19T05:16:38.172Z,100541.50
2022-10-19T05:19:06.226Z,100539.16
2022-10-19T05:21:34.339Z,100531.16
2022-10-19T05:24:02.610Z,100537.34
2022-10-19T05:26:30.874Z,100539.00
2022-10-19T05:29:01.979Z,100536.38
2022-10-19T05:31:34.680Z,100531.88
2022-10-19T05:34:05.046Z,100531.50
2022-10-19T05:36:36.935Z,100536.72
2022-10-19T05:39:06.893Z,100538.44
2022-10-19T05:41:35.095Z,100539.78
2022-10-19T05:44:03.935Z,100537.69
2022-10-19T05:46:33.228Z,100538.03
2022-10-19T05:49:02.028Z,100538.56
2022-10-19T05:51:31.566Z,100537.25
2022-10-19T05:53:59.893Z,100533.38
2022-10-19T05:56:30.386Z,100536.03
2022-10-19T05:58:59.607Z,100539.19
2022-10-19T06:01:28.854Z,100544.91
2022-10-19T06:03:58.860Z,100542.38
2022-10-19T06:06:28.254Z,100541.53
2022-10-19T06:08:59.009Z,100535.44
2022-10-19T06:11:29.043Z,100538.13
2022-10-19T06:14:00.895Z,100534.94
2022-10-19T06:16:30.538Z,100540.25
2022-10-19T06:18:59.752Z,100532.50
2022-10-19T06:21:29.662Z,100537.47
2022-10-19T06:24:00.878Z,100544.84
2022-10-19T06:26:30.284Z,100534.94
2022-10-19T06:29:00.548Z,100547.00
2022-10-19T06:31:29.048Z,100556.91
2022-10-19T06:33:57.483Z,100562.44
2022-10-19T06:36:27.725Z,100562.78
2022-10-19T06:38:56.655Z,100558.81
2022-10-19T06:41:34.296Z,100557.84
2022-10-19T06:44:19.071Z,100556.47
2022-10-19T06:46:47.329Z,100565.66
2022-10-19T06:49:15.828Z,100565.56
2022-10-19T06:51:59.874Z,100562.25
2022-10-19T06:54:28.077Z,100569.13
2022-10-19T06:56:57.602Z,100564.34
2022-10-19T06:59:25.835Z,100569.91
2022-10-19T07:01:54.221Z,100565.31
2022-10-19T07:04:22.296Z,100565.91
2022-10-19T07:06:50.591Z,100556.03
2022-10-19T07:09:19.813Z,100561.41
2022-10-19T07:11:47.959Z,100548.53
2022-10-19T07:14:17.752Z,100546.22
2022-10-19T07:16:45.827Z,100550.44
2022-10-19T07:19:13.997Z,100550.34
2022-10-19T07:21:43.843Z,100545.38
2022-10-19T07:24:12.122Z,100545.38
2022-10-19T07:26:42.625Z,100530.94
2022-10-19T07:29:11.309Z,100531.63
2022-10-19T07:31:41.594Z,100527.75
2022-10-19T07:34:13.989Z,100526.91
2022-10-19T07:36:45.392Z,100527.63
2022-10-19T07:39:14.198Z,100530.13
2022-10-19T07:41:42.337Z,100532.53
2022-10-19T07:44:12.144Z,100538.06
2022-10-19T07:46:45.103Z,100532.13
2022-10-19T07:49:35.497Z,100499.38
2022-10-19T07:52:03.918Z,100479.66
2022-10-19T07:54:32.037Z,100487.34
2022-10-19T07:57:00.196Z,100491.09
2022-10-19T07:59:28.525Z,100480.81
2022-10-19T08:01:59.056Z,100488.28
2022-10-19T08:07:15.294Z,100473.56
2022-10-19T08:09:58.803Z,100482.03
2022-10-19T08:12:28.264Z,100486.75
2022-10-19T08:14:56.465Z,100483.56
2022-10-19T08:17:26.023Z,100483.38
2022-10-19T08:19:54.088Z,100493.34
2022-10-19T08:22:25.355Z,100483.25
2022-10-19T08:24:53.482Z,100480.47
2022-10-19T08:27:21.689Z,100476.59
2022-10-19T08:29:50.008Z,100473.91
2022-10-19T08:32:18.201Z,100464.09
2022-10-19T08:34:47.761Z,100453.22
2022-10-19T08:37:25.654Z,100442.19
2022-10-19T08:40:00.957Z,100425.47
2022-10-19T08:42:40.950Z,100424.50
2022-10-19T08:48:28.526Z,100398.69
2022-10-19T08:50:59.963Z,100385.50
2022-10-19T08:53:55.530Z,100361.31
2022-10-19T08:56:50.953Z,100338.03
2022-10-19T08:59:31.700Z,100314.34
2022-10-19T09:02:03.843Z,100299.59
2022-10-19T09:04:36.567Z,100286.38
2022-10-19T09:07:28.838Z,100283.03
2022-10-19T09:10:01.131Z,100261.28
2022-10-19T09:12:43.503Z,100245.31
2022-10-19T09:15:14.517Z,100231.69
2022-10-19T09:17:42.598Z,100228.75
2022-10-19T09:20:20.097Z,100222.00
2022-10-19T09:22:56.782Z,100217.56
2022-10-19T09:25:27.200Z,100209.72
2022-10-19T09:28:07.816Z,100221.13
2022-10-19T09:30:38.809Z,100209.72
2022-10-19T09:33:15.170Z,100212.91
2022-10-19T09:35:46.656Z,100220.06
2022-10-19T09:38:23.612Z,100221.06
2022-10-19T09:40:51.660Z,100232.84
2022-10-19T09:43:22.145Z,100239.25
2022-10-19T09:45:54.963Z,100245.53
2022-10-19T09:48:29.641Z,100251.34
2022-10-19T09:51:00.042Z,100249.59
2022-10-19T09:53:30.522Z,100260.44
2022-10-19T09:56:01.656Z,100267.47
2022-10-19T09:58:33.106Z,100291.34
2022-10-19T10:01:04.835Z,100303.41
2022-10-19T10:03:36.342Z,100311.75
2022-10-19T10:06:07.127Z,100310.31
2022-10-19T10:08:39.982Z,100324.84
2022-10-19T10:11:13.795Z,100336.66
2022-10-19T10:16:33.172Z,100336.03
2022-10-19T10:19:05.300Z,100326.91
2022-10-19T10:21:48.165Z,100314.13
2022-10-19T10:24:21.897Z,100311.94
2022-10-19T10:26:52.141Z,100310.94
2022-10-19T10:29:22.242Z,100319.06
2022-10-19T10:31:55.243Z,100307.22
2022-10-19T10:37:24.375Z,100309.94
2022-10-19T10:39:57.684Z,100325.00
2022-10-19T10:42:34.921Z,100323.53
2022-10-19T10:45:03.968Z,100318.25
2022-10-19T10:47:32.398Z,100319.94
2022-10-19T10:50:03.753Z,100321.06
2022-10-19T10:52:32.595Z,100327.84
2022-10-19T10:55:05.211Z,100330.66
2022-10-19T10:57:40.059Z,100343.97
2022-10-19T11:00:14.074Z,100354.44
2022-10-19T11:02:53.264Z,100319.81
2022-10-19T11:05:24.870Z,100337.81
2022-10-19T11:07:57.836Z,100364.06
2022-10-19T11:10:32.890Z,100382.19
2022-10-19T11:13:16.044Z,100411.03
2022-10-19T11:15:53.717Z,100400.78
2022-10-19T11:18:25.999Z,100395.09
2022-10-19T11:21:07.675Z,100396.69
2022-10-19T11:24:07.281Z,100396.47
2022-10-19T11:26:59.605Z,100378.69
2022-10-19T11:29:54.668Z,100374.34
2022-10-19T11:32:33.369Z,100378.06
2022-10-19T11:35:24.885Z,100374.13
2022-10-19T11:38:21.939Z,100377.94
2022-10-19T11:41:17.029Z,100369.47
2022-10-19T11:44:21.273Z,100369.44
2022-10-19T11:47:01.708Z,100383.69
2022-10-19T11:49:41.771Z,100387.00
2022-10-19T11:52:17.378Z,100386.94
2022-10-19T11:55:03.118Z,100411.59
2022-10-19T11:57:36.112Z,100404.75
2022-10-19T12:00:21.126Z,100428.50
2022-10-19T12:03:17.508Z,100431.72
2022-10-19T12:05:57.351Z,100443.69
2022-10-19T12:08:42.574Z,100441.34
2022-10-19T12:11:26.152Z,100453.84
2022-10-19T12:13:58.644Z,100451.47
2022-10-19T12:16:45.384Z,100414.91
2022-10-19T12:19:19.629Z,100402.56
2022-10-19T12:21:48.887Z,100403.22
2022-10-19T12:24:20.518Z,100420.75
2022-10-19T12:26:49.529Z,100410.78
2022-10-19T12:29:22.468Z,100415.91
2022-10-19T12:31:54.519Z,100435.19
2022-10-19T12:34:32.450Z,100433.53
2022-10-19T12:37:08.204Z,100434.06
2022-10-19T12:39:44.318Z,100423.31
2022-10-19T12:42:23.337Z,100414.94
2022-10-19T12:45:19.145Z,100403.13
2022-10-19T12:48:32.908Z,100384.50
2022-10-19T12:54:52.509Z,100374.91
2022-10-19T12:57:28.795Z,100377.75
2022-10-19T13:00:22.556Z,100386.84
2022-10-19T13:02:59.323Z,100385.84
2022-10-19T13:05:30.535Z,100384.56
2022-10-19T13:08:03.601Z,100379.06
2022-10-19T13:10:33.712Z,100348.47
2022-10-19T13:13:04.324Z,100183.44
2022-10-19T13:15:56.527Z,100100.56
2022-10-19T13:19:09.850Z,100164.38
2022-10-19T13:22:14.689Z,100208.75
2022-10-19T13:24:44.156Z,100003.97
2022-10-19T13:27:38.738Z,99973.50
2022-10-19T13:30:46.256Z,99952.03
2022-10-19T13:33:46.664Z,99945.75
2022-10-19T13:36:15.686Z,99983.94
2022-10-19T13:38:45.553Z,99981.50
2022-10-19T13:41:19.349Z,100049.34
2022-10-19T13:44:06.800Z,100002.44
2022-10-19T13:46:55.833Z,99949.59
2022-10-19T13:49:50.183Z,99899.78
2022-10-19T13:52:46.807Z,99831.75
2022-10-19T13:55:53.254Z,99869.94
2022-10-19T13:59:10.039Z,99877.13
2022-10-19T14:05:11.944Z,99793.75
2022-10-19T14:07:50.726Z,99767.81
2022-10-19T14:10:25.172Z,99799.63
2022-10-19T14:13:03.353Z,99765.88
2022-10-19T14:15:34.293Z,99783.09
2022-10-19T14:18:05.852Z,99765.78
2022-10-19T14:20:37.829Z,99673.84
2022-10-19T14:23:30.828Z,99640.00
2022-10-19T14:26:02.077Z,99628.34
2022-10-19T14:28:31.296Z,99615.22
2022-10-19T14:31:01.723Z,99615.75
2022-10-19T14:33:33.512Z,99620.09
2022-10-19T14:36:03.839Z,99636.69
2022-10-19T14:38:43.716Z,99642.13
2022-10-19T14:41:21.930Z,99652.28
2022-10-19T14:43:50.224Z,99664.72
2022-10-19T14:46:18.469Z,99684.06
2022-10-19T14:48:48.771Z,99683.63
2022-10-19T14:51:30.376Z,99707.50
2022-10-19T14:54:04.191Z,99710.38
2022-10-19T14:56:35.878Z,99714.81
2022-10-19T14:59:07.038Z,99727.69
2022-10-19T15:01:37.161Z,99720.25
2022-10-19T15:04:05.926Z,99755.00
2022-10-19T15:06:42.285Z,99765.75
2022-10-19T15:09:36.836Z,99767.28
2022-10-19T15:12:09.306Z,99784.56
2022-10-19T15:14:39.391Z,99769.84
2022-10-19T15:17:24.006Z,99782.31
2022-10-19T15:20:00.915Z,99789.44
2022-10-19T15:22:41.430Z,99778.00
2022-10-19T15:25:32.677Z,99781.44
2022-10-19T15:28:34.908Z,99779.88
2022-10-19T15:31:07.849Z,99763.69
2022-10-19T15:33:40.487Z,99772.56
2022-10-19T15:36:16.882Z,99779.28
2022-10-19T15:38:47.895Z,99774.69
2022-10-19T15:41:21.299Z,99785.44
2022-10-19T15:43:52.160Z,99778.59
2022-10-19T15:46:56.778Z,99791.47
2022-10-19T15:49:54.073Z,99787.97
2022-10-19T15:52:24.324Z,99798.59
2022-10-19T15:54:55.166Z,99817.31
2022-10-19T15:57:26.418Z,99815.13
2022-10-19T15:59:55.693Z,99835.72
2022-10-19T16:02:25.109Z,99827.00
2022-10-19T16:04:53.614Z,99846.28
2022-10-19T16:07:26.898Z,99858.81
2022-10-19T16:09:56.340Z,99858.53
2022-10-19T16:12:25.103Z,99865.06
2022-10-19T16:14:53.061Z,99866.25
2022-10-19T16:17:21.800Z,99893.31
2022-10-19T16:19:49.929Z,99904.31
2022-10-19T16:22:43.035Z,99884.97
2022-10-19T16:25:14.137Z,99869.31
2022-10-19T16:27:42.690Z,99823.31
2022-10-19T16:30:11.993Z,99809.91
2022-10-19T16:35:13.272Z,99818.84
2022-10-19T16:37:41.168Z,99818.38
2022-10-19T16:40:10.444Z,99814.69
2022-10-19T16:42:43.274Z,99814.78
2022-10-19T16:45:12.526Z,99814.66
2022-10-19T16:47:40.695Z,99804.09
2022-10-19T16:50:09.641Z,99830.25
2022-10-19T16:52:38.617Z,99810.81
2022-10-19T16:55:08.156Z,99824.44
2022-10-19T16:57:36.992Z,99825.34
2022-10-19T17:00:09.509Z,99829.31
2022-10-19T17:03:02.325Z,99816.94
2022-10-19T17:05:30.322Z,99825.78
2022-10-19T17:07:58.549Z,99831.81
2022-10-19T17:10:26.548Z,99837.16
2022-10-19T17:12:55.777Z,99839.47
2022-10-19T17:15:42.380Z,99843.97
2022-10-19T17:18:11.620Z,99828.78
2022-10-19T17:20:39.662Z,99830.75
2022-10-19T17:23:15.068Z,99825.59
2022-10-19T17:25:49.012Z,99816.88
2022-10-19T17:28:17.164Z,99803.75
2022-10-19T17:30:47.653Z,99804.72
2022-10-19T17:33:16.126Z,99801.03
2022-10-19T17:35:44.170Z,99792.53
2022-10-19T17:38:12.183Z,99780.84
2022-10-19T17:40:40.116Z,99782.69
2022-10-19T17:43:15.034Z,99785.31
2022-10-19T17:48:12.778Z,99786.97
2022-10-19T17:50:40.888Z,99777.06
2022-10-19T17:53:09.020Z,99780.09
2022-10-19T17:55:38.017Z,99777.78
2022-10-19T17:58:08.043Z,99777.31
2022-10-19T18:00:36.035Z,99787.81
2022-10-19T18:03:04.131Z,99785.03
2022-10-19T18:05:33.597Z,99825.44
2022-10-19T18:08:01.636Z,99828.19
2022-10-19T18:10:32.723Z,99853.41
2022-10-19T18:13:00.831Z,99862.09
2022-10-19T18:15:29.003Z,99946.72
2022-10-19T18:17:57.450Z,100002.84
2022-10-19T18:20:25.613Z,100066.00
2022-10-19T18:22:58.092Z,100079.78
2022-10-19T18:25:49.443Z,100120.34
2022-10-19T18:28:14.478Z,100247.88
2022-10-19T18:30:45.191Z,100316.94
2022-10-19T18:33:13.469Z,100401.66
2022-10-19T18:35:42.343Z,100542.94
2022-10-19T18:38:11.912Z,100572.81
2022-10-19T18:40:39.966Z,100587.28
2022-10-19T18:43:07.977Z,100668.88
2022-10-19T18:45:35.974Z,100428.03
2022-10-19T18:48:03.939Z,100446.34
2022-10-19T18:50:32.029Z,100455.56
2022-10-19T18:53:00.190Z,100478.69
2022-10-19T18:55:29.702Z,100466.56
2022-10-19T18:57:57.905Z,100470.56
2022-10-19T19:00:26.342Z,100457.31
2022-10-19T19:02:55.014Z,100459.44
2022-10-19T19:05:23.465Z,100455.75
2022-10-19T19:07:57.561Z,100441.91
2022-10-19T19:10:26.423Z,100426.13
2022-10-19T19:12:55.936Z,100434.69
2022-10-19T19:15:24.050Z,100428.31
2022-10-19T19:17:55.338Z,100418.91
2022-10-19T19:20:27.099Z,100423.13
2022-10-19T19:22:55.322Z,100410.34
2022-10-19T19:25:23.624Z,100397.06
2022-10-19T19:27:51.778Z,100403.00
2022-10-19T19:30:21.274Z,100391.44
2022-10-19T19:32:49.444Z,100389.63
2022-10-19T19:35:17.551Z,100392.22
2022-10-19T19:37:45.796Z,100359.59
2022-10-19T19:40:15.528Z,100298.41
2022-10-19T19:42:43.594Z,100215.41
2022-10-19T19:45:12.065Z,100069.00
2022-10-19T19:47:41.717Z,100033.31
2022-10-19T19:50:10.532Z,100022.50
2022-10-19T19:52:40.568Z,100009.28
2022-10-19T19:55:09.410Z,100027.34
2022-10-19T19:57:37.739Z,100031.13
2022-10-19T20:00:06.747Z,100021.28
2022-10-19T20:02:39.314Z,99995.13
2022-10-19T20:05:09.174Z,99982.34
2022-10-19T20:08:04.580Z,99933.38
2022-10-19T20:10:47.633Z,99914.00
2022-10-19T20:13:15.575Z,99910.03
2022-10-19T20:15:43.552Z,99905.38
2022-10-19T20:18:11.743Z,99896.97
2022-10-19T20:20:42.616Z,99894.16
2022-10-19T20:23:13.289Z,99885.50
2022-10-19T20:25:41.317Z,99874.69
2022-10-19T20:28:09.177Z,99868.91
2022-10-19T20:30:37.170Z,99872.16
2022-10-19T20:33:05.668Z,99871.00
2022-10-19T20:35:37.368Z,99872.44
2022-10-19T20:38:06.587Z,99871.22
2022-10-19T20:40:34.513Z,99884.44
2022-10-19T20:43:02.585Z,99867.72
2022-10-19T20:45:30.533Z,99887.72
2022-10-19T20:47:58.489Z,99890.00
2022-10-19T20:50:26.637Z,99887.44
2022-10-19T20:52:54.548Z,99894.38
2022-10-19T20:55:23.783Z,99897.81
2022-10-19T20:57:51.645Z,99901.25
2022-10-19T21:00:19.747Z,99919.66
2022-10-19T21:02:47.647Z,99910.81
2022-10-19T21:05:15.949Z,99906.25
2022-10-19T21:07:43.879Z,99906.63
2022-10-19T21:10:38.203Z,99898.97
2022-10-19T21:13:06.032Z,99893.81
2022-10-19T21:15:59.104Z,99893.28
2022-10-19T21:18:27.051Z,99886.81
2022-10-19T21:20:54.976Z,99887.50
2022-10-19T21:23:22.819Z,99875.69
2022-10-19T21:26:17.773Z,99863.16
2022-10-19T21:28:49.957Z,99860.72
2022-10-19T21:31:18.826Z,99865.97
2022-10-19T21:33:47.013Z,99862.78
2022-10-19T21:36:16.141Z,99847.44
2022-10-19T21:38:44.180Z,99854.03
2022-10-19T21:41:14.399Z,99847.78
2022-10-19T21:43:43.979Z,99851.59
2022-10-19T21:46:14.718Z,99857.00
2022-10-19T21:48:43.185Z,99850.91
2022-10-19T21:51:22.147Z,99842.94
2022-10-19T21:53:50.332Z,99841.22
2022-10-19T21:56:18.760Z,99841.91
2022-10-19T21:58:48.941Z,99835.66
2022-10-19T22:01:17.894Z,99806.34
2022-10-19T22:03:46.097Z,99807.66
2022-10-19T22:06:15.174Z,99803.66
2022-10-19T22:08:46.246Z,99819.53
2022-10-19T22:11:15.797Z,99813.41
2022-10-19T22:13:44.017Z,99821.25
2022-10-19T22:16:15.191Z,99829.72
2022-10-19T22:18:43.583Z,99818.66
2022-10-19T22:21:13.395Z,99837.03
2022-10-19T22:23:42.928Z,99815.34
2022-10-19T22:26:15.694Z,99811.44
2022-10-19T22:28:44.443Z,99805.88
2022-10-19T22:31:14.452Z,99799.72
2022-10-19T22:33:45.668Z,99774.47
2022-10-19T22:36:14.370Z,99780.97
2022-10-19T22:38:42.404Z,99769.28
2022-10-19T22:41:10.473Z,99786.22
2022-10-19T22:43:40.308Z,99777.66
2022-10-19T22:46:08.288Z,99779.53
2022-10-19T22:48:37.864Z,99775.66
2022-10-19T22:51:05.864Z,99764.25
2022-10-19T22:53:33.833Z,99776.72
2022-10-19T22:56:02.345Z,99771.34
2022-10-19T22:58:30.514Z,99761.00
2022-10-19T23:01:01.332Z,99754.53
2022-10-19T23:03:29.292Z,99762.44
2022-10-19T23:05:58.713Z,99761.91
2022-10-19T23:08:27.037Z,99756.09
2022-10-19T23:10:55.262Z,99754.59
2022-10-19T23:13:23.193Z,99758.25
2022-10-19T23:15:51.639Z,99749.63
2022-10-19T23:18:19.794Z,99749.81
2022-10-19T23:20:54.210Z,99751.34
2022-10-19T23:23:23.787Z,99746.19
2022-10-19T23:25:59.116Z,99748.13
2022-10-19T23:28:27.271Z,99743.28
2022-10-19T23:30:56.554Z,99728.81
2022-10-19T23:33:24.819Z,99744.03
2022-10-19T23:35:53.095Z,99734.69
2022-10-19T23:38:21.009Z,99727.69
2022-10-19T23:40:50.259Z,99723.34
2022-10-19T23:43:18.129Z,99729.41
2022-10-19T23:45:46.580Z,99726.41
2022-10-19T23:48:14.464Z,99730.25
2022-10-19T23:50:42.554Z,99718.19
2022-10-19T23:53:10.674Z,99725.53
2022-10-19T23:55:38.783Z,99723.38
2022-10-19T23:58:08.291Z,99721.00
